sensor_id;sensor_type;location;lat;lon;timestamp;P1;durP1;ratioP1;P2;durP2;ratioP2
15312;SDS011;7757;52.626;4.746;2022-09-02T00:00:50;6.75;;;1.63;;
15312;SDS011;7757;52.626;4.746;2022-09-02T00:03:19;4.13;;;1.50;;
15312;SDS011;7757;52.626;4.746;2022-09-02T00:05:45;10.40;;;1.60;;
15312;SDS011;7757;52.626;4.746;2022-09-02T00:08:14;6.78;;;1.60;;
15312;SDS011;7757;52.626;4.746;2022-09-02T00:10:41;5.40;;;1.52;;
15312;SDS011;7757;52.626;4.746;2022-09-02T00:13:09;7.63;;;1.73;;
15312;SDS011;7757;52.626;4.746;2022-09-02T00:15:39;6.72;;;1.58;;
15312;SDS011;7757;52.626;4.746;2022-09-02T00:18:05;6.65;;;1.60;;
15312;SDS011;7757;52.626;4.746;2022-09-02T00:20:33;5.97;;;1.50;;
15312;SDS011;7757;52.626;4.746;2022-09-02T00:22:59;5.82;;;1.63;;
15312;SDS011;7757;52.626;4.746;2022-09-02T00:25:27;6.95;;;1.45;;
15312;SDS011;7757;52.626;4.746;2022-09-02T00:27:54;8.80;;;1.65;;
15312;SDS011;7757;52.626;4.746;2022-09-02T00:30:21;7.22;;;1.60;;
15312;SDS011;7757;52.626;4.746;2022-09-02T00:32:47;6.78;;;1.50;;
15312;SDS011;7757;52.626;4.746;2022-09-02T00:35:14;4.40;;;1.30;;
15312;SDS011;7757;52.626;4.746;2022-09-02T00:37:40;7.38;;;1.73;;
15312;SDS011;7757;52.626;4.746;2022-09-02T00:40:07;5.10;;;1.40;;
15312;SDS011;7757;52.626;4.746;2022-09-02T00:42:37;6.35;;;1.50;;
15312;SDS011;7757;52.626;4.746;2022-09-02T00:45:04;6.25;;;1.42;;
15312;SDS011;7757;52.626;4.746;2022-09-02T00:47:31;5.03;;;1.40;;
15312;SDS011;7757;52.626;4.746;2022-09-02T00:49:58;6.50;;;1.50;;
15312;SDS011;7757;52.626;4.746;2022-09-02T00:52:27;7.07;;;1.40;;
15312;SDS011;7757;52.626;4.746;2022-09-02T00:54:56;5.13;;;1.60;;
15312;SDS011;7757;52.626;4.746;2022-09-02T00:57:26;8.07;;;1.88;;
15312;SDS011;7757;52.626;4.746;2022-09-02T00:59:58;5.50;;;1.58;;
15312;SDS011;7757;52.626;4.746;2022-09-02T01:02:31;5.97;;;1.40;;
15312;SDS011;7757;52.626;4.746;2022-09-02T01:04:58;5.32;;;1.67;;
15312;SDS011;7757;52.626;4.746;2022-09-02T01:07:27;5.78;;;1.73;;
15312;SDS011;7757;52.626;4.746;2022-09-02T01:09:57;6.32;;;1.60;;
15312;SDS011;7757;52.626;4.746;2022-09-02T01:12:25;6.43;;;1.42;;
15312;SDS011;7757;52.626;4.746;2022-09-02T01:14:51;4.80;;;1.60;;
15312;SDS011;7757;52.626;4.746;2022-09-02T01:17:19;9.27;;;1.70;;
15312;SDS011;7757;52.626;4.746;2022-09-02T01:19:48;6.22;;;1.70;;
15312;SDS011;7757;52.626;4.746;2022-09-02T01:22:27;6.63;;;1.67;;
15312;SDS011;7757;52.626;4.746;2022-09-02T01:24:55;3.95;;;1.40;;
15312;SDS011;7757;52.626;4.746;2022-09-02T01:27:24;5.90;;;1.48;;
15312;SDS011;7757;52.626;4.746;2022-09-02T01:29:51;5.03;;;1.50;;
15312;SDS011;7757;52.626;4.746;2022-09-02T01:32:20;6.47;;;1.60;;
15312;SDS011;7757;52.626;4.746;2022-09-02T01:34:46;5.15;;;1.55;;
15312;SDS011;7757;52.626;4.746;2022-09-02T01:37:13;8.63;;;1.70;;
15312;SDS011;7757;52.626;4.746;2022-09-02T01:39:41;7.90;;;1.60;;
15312;SDS011;7757;52.626;4.746;2022-09-02T01:42:07;6.63;;;1.63;;
15312;SDS011;7757;52.626;4.746;2022-09-02T01:44:34;6.45;;;1.60;;
15312;SDS011;7757;52.626;4.746;2022-09-02T01:47:07;5.50;;;1.60;;
15312;SDS011;7757;52.626;4.746;2022-09-02T01:49:34;5.10;;;1.30;;
15312;SDS011;7757;52.626;4.746;2022-09-02T01:52:01;4.80;;;1.35;;
15312;SDS011;7757;52.626;4.746;2022-09-02T01:54:29;18.23;;;1.80;;
15312;SDS011;7757;52.626;4.746;2022-09-02T01:56:57;6.68;;;1.75;;
15312;SDS011;7757;52.626;4.746;2022-09-02T01:59:23;7.07;;;1.58;;
15312;SDS011;7757;52.626;4.746;2022-09-02T02:01:50;3.33;;;1.17;;
15312;SDS011;7757;52.626;4.746;2022-09-02T02:04:16;4.05;;;1.50;;
15312;SDS011;7757;52.626;4.746;2022-09-02T02:06:44;6.45;;;1.73;;
15312;SDS011;7757;52.626;4.746;2022-09-02T02:09:12;6.05;;;1.63;;
15312;SDS011;7757;52.626;4.746;2022-09-02T02:11:40;6.75;;;2.08;;
15312;SDS011;7757;52.626;4.746;2022-09-02T02:14:08;3.70;;;1.33;;
15312;SDS011;7757;52.626;4.746;2022-09-02T02:16:35;5.05;;;1.40;;
15312;SDS011;7757;52.626;4.746;2022-09-02T02:19:02;5.97;;;1.52;;
15312;SDS011;7757;52.626;4.746;2022-09-02T02:21:30;7.57;;;1.60;;
15312;SDS011;7757;52.626;4.746;2022-09-02T02:23:57;5.30;;;1.67;;
15312;SDS011;7757;52.626;4.746;2022-09-02T02:26:25;6.82;;;1.52;;
15312;SDS011;7757;52.626;4.746;2022-09-02T02:28:51;6.45;;;1.52;;
15312;SDS011;7757;52.626;4.746;2022-09-02T02:31:20;5.93;;;1.60;;
15312;SDS011;7757;52.626;4.746;2022-09-02T02:33:48;5.40;;;1.45;;
15312;SDS011;7757;52.626;4.746;2022-09-02T02:36:15;8.40;;;1.60;;
15312;SDS011;7757;52.626;4.746;2022-09-02T02:38:42;5.97;;;1.40;;
15312;SDS011;7757;52.626;4.746;2022-09-02T02:41:10;8.43;;;1.50;;
15312;SDS011;7757;52.626;4.746;2022-09-02T02:43:37;6.05;;;1.60;;
15312;SDS011;7757;52.626;4.746;2022-09-02T02:46:05;5.60;;;1.50;;
15312;SDS011;7757;52.626;4.746;2022-09-02T02:48:34;6.45;;;1.67;;
15312;SDS011;7757;52.626;4.746;2022-09-02T02:51:01;6.60;;;1.70;;
15312;SDS011;7757;52.626;4.746;2022-09-02T02:53:28;4.15;;;1.38;;
15312;SDS011;7757;52.626;4.746;2022-09-02T02:55:55;8.10;;;1.80;;
15312;SDS011;7757;52.626;4.746;2022-09-02T02:58:22;5.00;;;1.40;;
15312;SDS011;7757;52.626;4.746;2022-09-02T03:00:49;5.55;;;1.50;;
15312;SDS011;7757;52.626;4.746;2022-09-02T03:03:15;5.53;;;1.50;;
15312;SDS011;7757;52.626;4.746;2022-09-02T03:05:45;5.18;;;1.40;;
15312;SDS011;7757;52.626;4.746;2022-09-02T03:08:12;9.63;;;1.50;;
15312;SDS011;7757;52.626;4.746;2022-09-02T03:10:40;5.47;;;1.40;;
15312;SDS011;7757;52.626;4.746;2022-09-02T03:13:08;7.53;;;1.50;;
15312;SDS011;7757;52.626;4.746;2022-09-02T03:15:36;3.75;;;1.30;;
15312;SDS011;7757;52.626;4.746;2022-09-02T03:18:03;5.00;;;1.40;;
15312;SDS011;7757;52.626;4.746;2022-09-02T03:20:30;6.32;;;1.70;;
15312;SDS011;7757;52.626;4.746;2022-09-02T03:22:58;4.32;;;1.40;;
15312;SDS011;7757;52.626;4.746;2022-09-02T03:25:26;4.75;;;1.60;;
15312;SDS011;7757;52.626;4.746;2022-09-02T03:27:55;6.25;;;1.52;;
15312;SDS011;7757;52.626;4.746;2022-09-02T03:30:22;5.82;;;1.60;;
15312;SDS011;7757;52.626;4.746;2022-09-02T03:32:50;4.05;;;1.45;;
15312;SDS011;7757;52.626;4.746;2022-09-02T03:35:17;3.65;;;1.35;;
15312;SDS011;7757;52.626;4.746;2022-09-02T03:37:45;6.22;;;1.60;;
15312;SDS011;7757;52.626;4.746;2022-09-02T03:40:15;7.55;;;1.67;;
15312;SDS011;7757;52.626;4.746;2022-09-02T03:42:43;4.75;;;1.50;;
15312;SDS011;7757;52.626;4.746;2022-09-02T03:45:11;4.07;;;1.58;;
15312;SDS011;7757;52.626;4.746;2022-09-02T03:47:38;7.63;;;1.70;;
15312;SDS011;7757;52.626;4.746;2022-09-02T03:50:10;9.82;;;1.63;;
15312;SDS011;7757;52.626;4.746;2022-09-02T03:52:36;6.57;;;1.50;;
15312;SDS011;7757;52.626;4.746;2022-09-02T03:55:03;7.70;;;1.50;;
15312;SDS011;7757;52.626;4.746;2022-09-02T03:57:33;5.75;;;1.60;;
15312;SDS011;7757;52.626;4.746;2022-09-02T04:00:00;6.50;;;1.52;;
15312;SDS011;7757;52.626;4.746;2022-09-02T04:02:28;4.05;;;1.30;;
15312;SDS011;7757;52.626;4.746;2022-09-02T04:04:54;4.85;;;1.27;;
15312;SDS011;7757;52.626;4.746;2022-09-02T04:07:21;7.32;;;1.60;;
15312;SDS011;7757;52.626;4.746;2022-09-02T04:09:47;5.28;;;1.50;;
15312;SDS011;7757;52.626;4.746;2022-09-02T04:12:14;4.28;;;1.38;;
15312;SDS011;7757;52.626;4.746;2022-09-02T04:14:42;4.28;;;1.35;;
15312;SDS011;7757;52.626;4.746;2022-09-02T04:17:08;5.15;;;1.45;;
15312;SDS011;7757;52.626;4.746;2022-09-02T04:19:35;5.30;;;1.30;;
15312;SDS011;7757;52.626;4.746;2022-09-02T04:22:03;3.55;;;1.30;;
15312;SDS011;7757;52.626;4.746;2022-09-02T04:24:29;7.75;;;2.08;;
15312;SDS011;7757;52.626;4.746;2022-09-02T04:26:56;4.93;;;1.33;;
15312;SDS011;7757;52.626;4.746;2022-09-02T04:29:22;9.98;;;2.00;;
15312;SDS011;7757;52.626;4.746;2022-09-02T04:31:51;8.40;;;2.05;;
15312;SDS011;7757;52.626;4.746;2022-09-02T04:34:18;10.30;;;2.45;;
15312;SDS011;7757;52.626;4.746;2022-09-02T04:36:45;8.68;;;2.15;;
15312;SDS011;7757;52.626;4.746;2022-09-02T04:39:11;10.35;;;2.63;;
15312;SDS011;7757;52.626;4.746;2022-09-02T04:41:39;12.90;;;2.60;;
15312;SDS011;7757;52.626;4.746;2022-09-02T04:44:06;10.30;;;2.60;;
15312;SDS011;7757;52.626;4.746;2022-09-02T04:46:33;12.05;;;2.88;;
15312;SDS011;7757;52.626;4.746;2022-09-02T04:49:01;9.25;;;2.47;;
15312;SDS011;7757;52.626;4.746;2022-09-02T04:51:28;14.20;;;3.70;;
15312;SDS011;7757;52.626;4.746;2022-09-02T04:53:54;12.30;;;3.33;;
15312;SDS011;7757;52.626;4.746;2022-09-02T04:56:22;10.98;;;2.97;;
15312;SDS011;7757;52.626;4.746;2022-09-02T04:58:50;9.43;;;2.58;;
15312;SDS011;7757;52.626;4.746;2022-09-02T05:01:18;11.70;;;2.80;;
15312;SDS011;7757;52.626;4.746;2022-09-02T05:03:47;11.88;;;2.70;;
15312;SDS011;7757;52.626;4.746;2022-09-02T05:06:17;12.18;;;3.03;;
15312;SDS011;7757;52.626;4.746;2022-09-02T05:08:44;10.45;;;3.13;;
15312;SDS011;7757;52.626;4.746;2022-09-02T05:11:12;11.23;;;3.30;;
15312;SDS011;7757;52.626;4.746;2022-09-02T05:13:42;12.57;;;3.72;;
15312;SDS011;7757;52.626;4.746;2022-09-02T05:16:13;13.48;;;3.30;;
15312;SDS011;7757;52.626;4.746;2022-09-02T05:18:40;12.82;;;3.03;;
15312;SDS011;7757;52.626;4.746;2022-09-02T05:21:06;10.45;;;2.70;;
15312;SDS011;7757;52.626;4.746;2022-09-02T05:23:35;12.40;;;3.15;;
15312;SDS011;7757;52.626;4.746;2022-09-02T05:26:02;11.23;;;2.85;;
15312;SDS011;7757;52.626;4.746;2022-09-02T05:28:28;11.05;;;3.05;;
15312;SDS011;7757;52.626;4.746;2022-09-02T05:30:57;11.10;;;3.10;;
15312;SDS011;7757;52.626;4.746;2022-09-02T05:33:29;13.10;;;3.17;;
15312;SDS011;7757;52.626;4.746;2022-09-02T05:35:56;10.93;;;2.83;;
15312;SDS011;7757;52.626;4.746;2022-09-02T05:38:23;11.43;;;2.67;;
15312;SDS011;7757;52.626;4.746;2022-09-02T05:40:51;11.63;;;2.55;;
15312;SDS011;7757;52.626;4.746;2022-09-02T05:43:17;9.30;;;2.30;;
15312;SDS011;7757;52.626;4.746;2022-09-02T05:45:44;10.40;;;2.47;;
15312;SDS011;7757;52.626;4.746;2022-09-02T05:48:11;9.70;;;2.08;;
15312;SDS011;7757;52.626;4.746;2022-09-02T05:50:52;8.20;;;2.40;;
15312;SDS011;7757;52.626;4.746;2022-09-02T05:53:18;11.10;;;2.80;;
15312;SDS011;7757;52.626;4.746;2022-09-02T05:55:45;11.57;;;2.72;;
15312;SDS011;7757;52.626;4.746;2022-09-02T05:58:13;11.30;;;2.92;;
15312;SDS011;7757;52.626;4.746;2022-09-02T06:00:40;11.07;;;2.75;;
15312;SDS011;7757;52.626;4.746;2022-09-02T06:03:06;15.70;;;3.00;;
15312;SDS011;7757;52.626;4.746;2022-09-02T06:05:33;12.85;;;3.42;;
15312;SDS011;7757;52.626;4.746;2022-09-02T06:08:01;15.57;;;3.53;;
15312;SDS011;7757;52.626;4.746;2022-09-02T06:10:28;12.55;;;3.33;;
15312;SDS011;7757;52.626;4.746;2022-09-02T06:12:55;15.45;;;3.55;;
15312;SDS011;7757;52.626;4.746;2022-09-02T06:15:23;15.95;;;3.55;;
15312;SDS011;7757;52.626;4.746;2022-09-02T06:17:52;12.60;;;2.97;;
15312;SDS011;7757;52.626;4.746;2022-09-02T06:20:19;13.10;;;2.88;;
15312;SDS011;7757;52.626;4.746;2022-09-02T06:22:46;12.25;;;2.92;;
15312;SDS011;7757;52.626;4.746;2022-09-02T06:25:12;11.48;;;2.75;;
15312;SDS011;7757;52.626;4.746;2022-09-02T06:27:39;10.95;;;2.53;;
15312;SDS011;7757;52.626;4.746;2022-09-02T06:30:06;12.35;;;2.63;;
15312;SDS011;7757;52.626;4.746;2022-09-02T06:32:34;9.98;;;2.00;;
15312;SDS011;7757;52.626;4.746;2022-09-02T06:35:01;10.20;;;2.10;;
15312;SDS011;7757;52.626;4.746;2022-09-02T06:37:28;12.18;;;2.50;;
15312;SDS011;7757;52.626;4.746;2022-09-02T06:39:54;11.63;;;2.38;;
15312;SDS011;7757;52.626;4.746;2022-09-02T06:42:21;9.18;;;2.00;;
15312;SDS011;7757;52.626;4.746;2022-09-02T06:44:47;14.02;;;2.20;;
15312;SDS011;7757;52.626;4.746;2022-09-02T06:47:14;7.90;;;2.10;;
15312;SDS011;7757;52.626;4.746;2022-09-02T06:49:42;13.18;;;2.30;;
15312;SDS011;7757;52.626;4.746;2022-09-02T06:52:11;9.15;;;2.25;;
15312;SDS011;7757;52.626;4.746;2022-09-02T06:54:38;8.95;;;2.08;;
15312;SDS011;7757;52.626;4.746;2022-09-02T06:57:05;8.45;;;1.90;;
15312;SDS011;7757;52.626;4.746;2022-09-02T06:59:31;8.73;;;1.90;;
15312;SDS011;7757;52.626;4.746;2022-09-02T07:01:58;8.90;;;1.88;;
15312;SDS011;7757;52.626;4.746;2022-09-02T07:04:24;7.95;;;1.73;;
15312;SDS011;7757;52.626;4.746;2022-09-02T07:07:09;9.88;;;1.90;;
15312;SDS011;7757;52.626;4.746;2022-09-02T07:09:37;8.30;;;1.85;;
15312;SDS011;7757;52.626;4.746;2022-09-02T07:12:04;8.20;;;1.90;;
15312;SDS011;7757;52.626;4.746;2022-09-02T07:14:34;9.40;;;1.70;;
15312;SDS011;7757;52.626;4.746;2022-09-02T07:17:02;10.48;;;1.90;;
15312;SDS011;7757;52.626;4.746;2022-09-02T07:19:28;11.52;;;2.03;;
15312;SDS011;7757;52.626;4.746;2022-09-02T07:21:55;6.60;;;1.80;;
15312;SDS011;7757;52.626;4.746;2022-09-02T07:24:23;7.47;;;1.77;;
15312;SDS011;7757;52.626;4.746;2022-09-02T07:26:50;6.60;;;1.95;;
15312;SDS011;7757;52.626;4.746;2022-09-02T07:29:16;6.80;;;1.70;;
15312;SDS011;7757;52.626;4.746;2022-09-02T07:31:45;8.52;;;1.75;;
15312;SDS011;7757;52.626;4.746;2022-09-02T07:34:12;9.80;;;2.55;;
15312;SDS011;7757;52.626;4.746;2022-09-02T07:36:39;7.32;;;1.80;;
15312;SDS011;7757;52.626;4.746;2022-09-02T07:39:07;10.00;;;2.03;;
15312;SDS011;7757;52.626;4.746;2022-09-02T07:41:37;8.77;;;2.13;;
15312;SDS011;7757;52.626;4.746;2022-09-02T07:44:05;9.05;;;2.10;;
15312;SDS011;7757;52.626;4.746;2022-09-02T07:46:32;8.77;;;1.60;;
15312;SDS011;7757;52.626;4.746;2022-09-02T07:49:00;8.40;;;1.70;;
15312;SDS011;7757;52.626;4.746;2022-09-02T07:51:30;7.15;;;1.55;;
15312;SDS011;7757;52.626;4.746;2022-09-02T07:53:57;8.10;;;1.75;;
15312;SDS011;7757;52.626;4.746;2022-09-02T07:56:23;6.13;;;1.60;;
15312;SDS011;7757;52.626;4.746;2022-09-02T07:58:51;7.25;;;1.65;;
15312;SDS011;7757;52.626;4.746;2022-09-02T08:01:19;7.53;;;1.90;;
15312;SDS011;7757;52.626;4.746;2022-09-02T08:03:46;8.60;;;1.80;;
15312;SDS011;7757;52.626;4.746;2022-09-02T08:06:13;6.90;;;1.63;;
15312;SDS011;7757;52.626;4.746;2022-09-02T08:08:41;8.05;;;1.75;;
15312;SDS011;7757;52.626;4.746;2022-09-02T08:11:08;8.00;;;2.03;;
15312;SDS011;7757;52.626;4.746;2022-09-02T08:13:34;6.13;;;1.70;;
15312;SDS011;7757;52.626;4.746;2022-09-02T08:16:03;9.73;;;1.90;;
15312;SDS011;7757;52.626;4.746;2022-09-02T08:18:30;11.98;;;2.47;;
15312;SDS011;7757;52.626;4.746;2022-09-02T08:20:57;8.32;;;2.10;;
15312;SDS011;7757;52.626;4.746;2022-09-02T08:23:24;6.75;;;1.73;;
15312;SDS011;7757;52.626;4.746;2022-09-02T08:25:51;8.98;;;1.88;;
15312;SDS011;7757;52.626;4.746;2022-09-02T08:28:17;7.80;;;1.85;;
15312;SDS011;7757;52.626;4.746;2022-09-02T08:30:44;7.95;;;1.70;;
15312;SDS011;7757;52.626;4.746;2022-09-02T08:33:12;6.88;;;1.70;;
15312;SDS011;7757;52.626;4.746;2022-09-02T08:35:38;6.90;;;1.63;;
15312;SDS011;7757;52.626;4.746;2022-09-02T08:38:05;7.75;;;2.00;;
15312;SDS011;7757;52.626;4.746;2022-09-02T08:40:34;9.02;;;2.03;;
15312;SDS011;7757;52.626;4.746;2022-09-02T08:43:04;8.70;;;2.10;;
15312;SDS011;7757;52.626;4.746;2022-09-02T08:45:39;6.53;;;2.03;;
15312;SDS011;7757;52.626;4.746;2022-09-02T08:48:10;9.82;;;1.92;;
15312;SDS011;7757;52.626;4.746;2022-09-02T08:50:43;7.95;;;1.90;;
15312;SDS011;7757;52.626;4.746;2022-09-02T08:53:13;8.77;;;2.00;;
15312;SDS011;7757;52.626;4.746;2022-09-02T08:55:45;6.88;;;1.85;;
15312;SDS011;7757;52.626;4.746;2022-09-02T08:58:18;10.87;;;2.13;;
15312;SDS011;7757;52.626;4.746;2022-09-02T09:00:49;9.07;;;2.33;;
15312;SDS011;7757;52.626;4.746;2022-09-02T09:03:25;8.68;;;2.33;;
15312;SDS011;7757;52.626;4.746;2022-09-02T09:05:58;8.70;;;2.30;;
15312;SDS011;7757;52.626;4.746;2022-09-02T09:08:32;10.80;;;2.20;;
15312;SDS011;7757;52.626;4.746;2022-09-02T09:11:04;6.45;;;1.90;;
15312;SDS011;7757;52.626;4.746;2022-09-02T09:13:40;9.65;;;1.90;;
15312;SDS011;7757;52.626;4.746;2022-09-02T09:16:21;8.32;;;2.00;;
15312;SDS011;7757;52.626;4.746;2022-09-02T09:19:03;7.68;;;2.20;;
15312;SDS011;7757;52.626;4.746;2022-09-02T09:21:36;8.75;;;1.77;;
15312;SDS011;7757;52.626;4.746;2022-09-02T09:24:06;9.98;;;2.13;;
15312;SDS011;7757;52.626;4.746;2022-09-02T09:26:37;10.32;;;1.90;;
15312;SDS011;7757;52.626;4.746;2022-09-02T09:29:06;7.68;;;2.00;;
15312;SDS011;7757;52.626;4.746;2022-09-02T09:31:32;7.18;;;1.90;;
15312;SDS011;7757;52.626;4.746;2022-09-02T09:34:04;7.00;;;1.90;;
15312;SDS011;7757;52.626;4.746;2022-09-02T09:36:46;9.93;;;1.80;;
15312;SDS011;7757;52.626;4.746;2022-09-02T09:39:19;8.60;;;2.15;;
15312;SDS011;7757;52.626;4.746;2022-09-02T09:41:48;9.18;;;1.98;;
15312;SDS011;7757;52.626;4.746;2022-09-02T09:44:33;7.30;;;1.92;;
15312;SDS011;7757;52.626;4.746;2022-09-02T09:47:03;6.72;;;1.70;;
15312;SDS011;7757;52.626;4.746;2022-09-02T09:49:33;9.75;;;2.35;;
15312;SDS011;7757;52.626;4.746;2022-09-02T09:52:00;11.75;;;2.50;;
15312;SDS011;7757;52.626;4.746;2022-09-02T09:54:27;7.43;;;2.00;;
15312;SDS011;7757;52.626;4.746;2022-09-02T09:56:54;8.30;;;2.22;;
15312;SDS011;7757;52.626;4.746;2022-09-02T09:59:31;8.52;;;2.30;;
15312;SDS011;7757;52.626;4.746;2022-09-02T10:04:37;9.77;;;2.28;;
15312;SDS011;7757;52.626;4.746;2022-09-02T10:07:04;7.32;;;2.40;;
15312;SDS011;7757;52.626;4.746;2022-09-02T10:09:35;8.40;;;2.00;;
15312;SDS011;7757;52.626;4.746;2022-09-02T10:12:02;8.45;;;2.20;;
15312;SDS011;7757;52.626;4.746;2022-09-02T10:14:33;7.93;;;2.10;;
15312;SDS011;7757;52.626;4.746;2022-09-02T10:17:05;12.27;;;2.25;;
15312;SDS011;7757;52.626;4.746;2022-09-02T10:19:49;8.57;;;2.20;;
15312;SDS011;7757;52.626;4.746;2022-09-02T10:22:30;11.77;;;2.47;;
15312;SDS011;7757;52.626;4.746;2022-09-02T10:25:06;9.65;;;2.40;;
15312;SDS011;7757;52.626;4.746;2022-09-02T10:27:45;10.07;;;2.22;;
15312;SDS011;7757;52.626;4.746;2022-09-02T10:30:20;8.07;;;2.25;;
15312;SDS011;7757;52.626;4.746;2022-09-02T10:35:39;8.45;;;2.45;;
15312;SDS011;7757;52.626;4.746;2022-09-02T10:38:11;14.38;;;2.70;;
15312;SDS011;7757;52.626;4.746;2022-09-02T10:40:54;11.82;;;2.67;;
15312;SDS011;7757;52.626;4.746;2022-09-02T10:43:27;10.18;;;2.40;;
15312;SDS011;7757;52.626;4.746;2022-09-02T10:46:08;9.70;;;2.25;;
15312;SDS011;7757;52.626;4.746;2022-09-02T10:48:39;11.13;;;2.70;;
15312;SDS011;7757;52.626;4.746;2022-09-02T10:51:18;7.15;;;2.33;;
15312;SDS011;7757;52.626;4.746;2022-09-02T10:53:57;8.43;;;2.35;;
15312;SDS011;7757;52.626;4.746;2022-09-02T10:56:36;8.75;;;2.28;;
15312;SDS011;7757;52.626;4.746;2022-09-02T10:59:09;11.98;;;2.47;;
15312;SDS011;7757;52.626;4.746;2022-09-02T11:01:40;11.07;;;2.83;;
15312;SDS011;7757;52.626;4.746;2022-09-02T11:04:12;8.98;;;2.47;;
15312;SDS011;7757;52.626;4.746;2022-09-02T11:06:44;11.77;;;2.50;;
15312;SDS011;7757;52.626;4.746;2022-09-02T11:09:19;7.63;;;2.30;;
15312;SDS011;7757;52.626;4.746;2022-09-02T11:11:54;9.75;;;2.75;;
15312;SDS011;7757;52.626;4.746;2022-09-02T11:14:25;11.05;;;2.65;;
15312;SDS011;7757;52.626;4.746;2022-09-02T11:16:54;10.30;;;2.70;;
15312;SDS011;7757;52.626;4.746;2022-09-02T11:19:27;7.80;;;2.50;;
15312;SDS011;7757;52.626;4.746;2022-09-02T11:22:06;7.93;;;2.42;;
15312;SDS011;7757;52.626;4.746;2022-09-02T11:24:41;9.40;;;2.80;;
15312;SDS011;7757;52.626;4.746;2022-09-02T11:27:14;8.88;;;2.60;;
15312;SDS011;7757;52.626;4.746;2022-09-02T11:29:59;12.35;;;3.03;;
15312;SDS011;7757;52.626;4.746;2022-09-02T11:32:31;8.80;;;2.30;;
15312;SDS011;7757;52.626;4.746;2022-09-02T11:35:05;9.65;;;2.70;;
15312;SDS011;7757;52.626;4.746;2022-09-02T11:37:38;9.15;;;3.00;;
15312;SDS011;7757;52.626;4.746;2022-09-02T11:40:09;9.73;;;2.70;;
15312;SDS011;7757;52.626;4.746;2022-09-02T11:42:52;12.30;;;3.13;;
15312;SDS011;7757;52.626;4.746;2022-09-02T11:45:37;9.43;;;2.30;;
15312;SDS011;7757;52.626;4.746;2022-09-02T11:51:24;12.43;;;2.92;;
15312;SDS011;7757;52.626;4.746;2022-09-02T11:54:03;14.60;;;2.80;;
15312;SDS011;7757;52.626;4.746;2022-09-02T11:56:34;13.57;;;2.90;;
15312;SDS011;7757;52.626;4.746;2022-09-02T11:59:05;10.32;;;2.88;;
15312;SDS011;7757;52.626;4.746;2022-09-02T12:01:32;11.95;;;2.67;;
15312;SDS011;7757;52.626;4.746;2022-09-02T12:04:03;14.25;;;3.28;;
15312;SDS011;7757;52.626;4.746;2022-09-02T12:06:31;11.15;;;2.92;;
15312;SDS011;7757;52.626;4.746;2022-09-02T12:09:07;10.05;;;3.08;;
15312;SDS011;7757;52.626;4.746;2022-09-02T12:11:42;9.75;;;2.72;;
15312;SDS011;7757;52.626;4.746;2022-09-02T12:17:31;8.60;;;2.70;;
15312;SDS011;7757;52.626;4.746;2022-09-02T12:20:01;10.05;;;2.65;;
15312;SDS011;7757;52.626;4.746;2022-09-02T12:22:32;11.27;;;2.90;;
15312;SDS011;7757;52.626;4.746;2022-09-02T12:25:06;10.77;;;2.60;;
15312;SDS011;7757;52.626;4.746;2022-09-02T12:28:22;8.35;;;2.75;;
15312;SDS011;7757;52.626;4.746;2022-09-02T12:31:08;8.27;;;2.50;;
15312;SDS011;7757;52.626;4.746;2022-09-02T12:33:39;11.00;;;2.70;;
15312;SDS011;7757;52.626;4.746;2022-09-02T12:36:07;10.88;;;2.92;;
15312;SDS011;7757;52.626;4.746;2022-09-02T12:38:35;9.23;;;3.10;;
15312;SDS011;7757;52.626;4.746;2022-09-02T12:41:16;9.07;;;2.40;;
15312;SDS011;7757;52.626;4.746;2022-09-02T12:44:14;8.30;;;2.53;;
15312;SDS011;7757;52.626;4.746;2022-09-02T12:46:59;9.60;;;2.70;;
15312;SDS011;7757;52.626;4.746;2022-09-02T12:52:37;11.85;;;2.83;;
15312;SDS011;7757;52.626;4.746;2022-09-02T12:55:07;10.35;;;2.92;;
15312;SDS011;7757;52.626;4.746;2022-09-02T12:57:42;10.82;;;2.80;;
15312;SDS011;7757;52.626;4.746;2022-09-02T13:00:12;8.07;;;2.47;;
15312;SDS011;7757;52.626;4.746;2022-09-02T13:02:43;10.80;;;2.70;;
15312;SDS011;7757;52.626;4.746;2022-09-02T13:05:20;10.38;;;3.03;;
15312;SDS011;7757;52.626;4.746;2022-09-02T13:08:02;9.38;;;2.88;;
15312;SDS011;7757;52.626;4.746;2022-09-02T13:14:13;9.82;;;3.00;;
15312;SDS011;7757;52.626;4.746;2022-09-02T13:17:05;9.10;;;2.60;;
15312;SDS011;7757;52.626;4.746;2022-09-02T13:19:53;11.57;;;2.80;;
15312;SDS011;7757;52.626;4.746;2022-09-02T13:22:47;9.00;;;3.22;;
15312;SDS011;7757;52.626;4.746;2022-09-02T13:28:42;9.35;;;2.55;;
15312;SDS011;7757;52.626;4.746;2022-09-02T13:31:31;10.80;;;3.17;;
15312;SDS011;7757;52.626;4.746;2022-09-02T13:33:59;10.00;;;2.70;;
15312;SDS011;7757;52.626;4.746;2022-09-02T13:36:28;9.40;;;2.90;;
15312;SDS011;7757;52.626;4.746;2022-09-02T13:39:08;8.82;;;2.83;;
15312;SDS011;7757;52.626;4.746;2022-09-02T13:41:35;12.73;;;2.95;;
15312;SDS011;7757;52.626;4.746;2022-09-02T13:44:09;11.23;;;3.15;;
15312;SDS011;7757;52.626;4.746;2022-09-02T13:46:44;8.88;;;2.70;;
15312;SDS011;7757;52.626;4.746;2022-09-02T13:49:17;9.90;;;3.03;;
15312;SDS011;7757;52.626;4.746;2022-09-02T13:51:46;9.65;;;2.67;;
15312;SDS011;7757;52.626;4.746;2022-09-02T13:54:25;9.73;;;3.05;;
15312;SDS011;7757;52.626;4.746;2022-09-02T13:56:57;9.57;;;3.05;;
15312;SDS011;7757;52.626;4.746;2022-09-02T13:59:30;10.00;;;2.78;;
15312;SDS011;7757;52.626;4.746;2022-09-02T14:01:59;8.05;;;2.72;;
15312;SDS011;7757;52.626;4.746;2022-09-02T14:04:40;8.25;;;2.80;;
15312;SDS011;7757;52.626;4.746;2022-09-02T14:07:07;8.93;;;2.80;;
15312;SDS011;7757;52.626;4.746;2022-09-02T14:09:34;8.98;;;2.67;;
15312;SDS011;7757;52.626;4.746;2022-09-02T14:12:03;8.88;;;2.58;;
15312;SDS011;7757;52.626;4.746;2022-09-02T14:14:31;10.82;;;3.08;;
15312;SDS011;7757;52.626;4.746;2022-09-02T14:17:19;9.38;;;2.67;;
15312;SDS011;7757;52.626;4.746;2022-09-02T14:19:48;9.57;;;2.80;;
15312;SDS011;7757;52.626;4.746;2022-09-02T14:22:19;10.00;;;2.70;;
15312;SDS011;7757;52.626;4.746;2022-09-02T14:24:48;9.13;;;3.20;;
15312;SDS011;7757;52.626;4.746;2022-09-02T14:27:16;8.88;;;2.80;;
15312;SDS011;7757;52.626;4.746;2022-09-02T14:29:44;10.90;;;2.70;;
15312;SDS011;7757;52.626;4.746;2022-09-02T14:32:13;9.82;;;2.90;;
15312;SDS011;7757;52.626;4.746;2022-09-02T14:34:42;8.68;;;2.88;;
15312;SDS011;7757;52.626;4.746;2022-09-02T14:37:20;9.57;;;2.80;;
15312;SDS011;7757;52.626;4.746;2022-09-02T14:39:52;11.30;;;2.90;;
15312;SDS011;7757;52.626;4.746;2022-09-02T14:42:27;12.45;;;3.05;;
15312;SDS011;7757;52.626;4.746;2022-09-02T14:44:53;11.48;;;2.95;;
15312;SDS011;7757;52.626;4.746;2022-09-02T14:47:23;9.75;;;2.50;;
15312;SDS011;7757;52.626;4.746;2022-09-02T14:49:53;8.30;;;2.83;;
15312;SDS011;7757;52.626;4.746;2022-09-02T14:52:21;9.73;;;2.80;;
15312;SDS011;7757;52.626;4.746;2022-09-02T14:54:51;9.90;;;2.78;;
15312;SDS011;7757;52.626;4.746;2022-09-02T14:57:20;9.95;;;2.88;;
15312;SDS011;7757;52.626;4.746;2022-09-02T14:59:49;8.65;;;2.88;;
15312;SDS011;7757;52.626;4.746;2022-09-02T15:02:20;10.80;;;2.58;;
15312;SDS011;7757;52.626;4.746;2022-09-02T15:04:48;7.90;;;2.45;;
15312;SDS011;7757;52.626;4.746;2022-09-02T15:07:16;11.52;;;2.85;;
15312;SDS011;7757;52.626;4.746;2022-09-02T15:09:43;10.50;;;2.63;;
15312;SDS011;7757;52.626;4.746;2022-09-02T15:12:10;9.27;;;2.75;;
15312;SDS011;7757;52.626;4.746;2022-09-02T15:14:37;9.07;;;2.55;;
15312;SDS011;7757;52.626;4.746;2022-09-02T15:17:05;7.70;;;2.50;;
15312;SDS011;7757;52.626;4.746;2022-09-02T15:19:33;7.95;;;2.58;;
15312;SDS011;7757;52.626;4.746;2022-09-02T15:22:00;9.77;;;2.47;;
15312;SDS011;7757;52.626;4.746;2022-09-02T15:24:28;8.10;;;2.70;;
15312;SDS011;7757;52.626;4.746;2022-09-02T15:26:54;10.23;;;2.60;;
15312;SDS011;7757;52.626;4.746;2022-09-02T15:29:21;9.02;;;2.60;;
15312;SDS011;7757;52.626;4.746;2022-09-02T15:31:49;10.75;;;2.83;;
15312;SDS011;7757;52.626;4.746;2022-09-02T15:34:16;10.20;;;2.78;;
15312;SDS011;7757;52.626;4.746;2022-09-02T15:36:43;11.20;;;2.50;;